Time,TemperatureF,DewpointF,PressureIn,WindDirection,WindDirectionDegrees,WindSpeedMPH,WindSpeedGustMPH,Humidity,HourlyPrecipIn,Conditions,Clouds,dailyrainin,SoftwareType,DateUTC
2013-02-19 00:01:00,40.0,35.0,29.85,West,267,3.0,9.0,83,0.00,,,0.00,,2013-02-19 08:01:00,
2013-02-19 00:11:00,40.0,35.0,29.85,West,267,3.0,9.0,83,0.00,,,0.00,,2013-02-19 08:11:00,
2013-02-19 00:21:00,40.0,35.0,29.85,West,265,3.0,9.0,83,0.00,,,0.00,,2013-02-19 08:21:00,
2013-02-19 00:31:00,40.0,35.0,29.85,SW,236,3.0,8.0,82,0.00,,,0.00,,2013-02-19 08:31:00,
2013-02-19 00:42:00,40.0,35.0,29.85,SW,236,3.0,8.0,82,0.00,,,0.00,,2013-02-19 08:42:00,
2013-02-19 00:52:00,40.0,35.0,29.85,West,261,2.0,5.0,82,0.00,,,0.00,,2013-02-19 08:52:00,
2013-02-19 01:01:00,40.0,35.0,29.85,West,273,2.0,6.0,82,0.00,,,0.00,,2013-02-19 09:01:00,
2013-02-19 01:11:00,40.0,35.0,29.85,West,273,2.0,6.0,82,0.00,,,0.00,,2013-02-19 09:11:00,
2013-02-19 01:21:00,39.0,34.0,29.85,WSW,244,2.0,5.0,81,0.00,,,0.00,,2013-02-19 09:21:00,
2013-02-19 01:31:00,38.0,34.0,29.85,SW,236,1.0,4.0,84,0.00,,,0.00,,2013-02-19 09:31:00,
2013-02-19 01:41:00,38.0,34.0,29.85,SW,236,1.0,4.0,84,0.00,,,0.00,,2013-02-19 09:41:00,
2013-02-19 01:53:00,37.0,33.0,29.84,SSW,209,1.0,4.0,86,0.00,,,0.00,,2013-02-19 09:53:00,
2013-02-19 02:01:00,36.0,33.0,29.83,SW,223,1.0,3.0,87,0.00,,,0.00,,2013-02-19 10:01:00,
2013-02-19 02:11:00,36.0,33.0,29.83,SW,223,1.0,3.0,87,0.00,,,0.00,,2013-02-19 10:11:00,
2013-02-19 02:21:00,36.0,33.0,29.83,SW,225,1.0,5.0,87,0.00,,,0.00,,2013-02-19 10:21:00,
2013-02-19 02:31:00,36.0,33.0,29.83,SW,234,0.0,3.0,88,0.00,,,0.00,,2013-02-19 10:31:00,
2013-02-19 02:41:00,36.0,33.0,29.83,SW,234,0.0,3.0,88,0.00,,,0.00,,2013-02-19 10:41:00,
2013-02-19 02:52:00,37.0,34.0,29.83,SW,231,0.0,4.0,88,0.00,,,0.00,,2013-02-19 10:52:00,
2013-02-19 03:01:00,37.0,34.0,29.82,SSW,198,1.0,3.0,88,0.00,,,0.00,,2013-02-19 11:01:00,
2013-02-19 03:11:00,37.0,34.0,29.82,SSW,198,1.0,3.0,88,0.00,,,0.00,,2013-02-19 11:11:00,
2013-02-19 03:21:00,37.0,34.0,29.81,WSW,245,0.0,1.0,87,0.00,,,0.00,,2013-02-19 11:21:00,
2013-02-19 03:31:00,36.0,33.0,29.80,SW,223,0.0,2.0,89,0.00,,,0.00,,2013-02-19 11:31:00,
2013-02-19 03:42:00,36.0,33.0,29.80,SW,223,0.0,2.0,89,0.00,,,0.00,,2013-02-19 11:42:00,
2013-02-19 03:51:00,37.0,34.0,29.80,West,259,0.0,2.0,90,0.00,,,0.00,,2013-02-19 11:51:00,
2013-02-19 04:01:00,37.0,34.0,29.80,West,270,0.0,1.0,89,0.00,,,0.00,,2013-02-19 12:01:00,
2013-02-19 04:12:00,37.0,34.0,29.80,West,270,0.0,1.0,89,0.00,,,0.00,,2013-02-19 12:12:00,
2013-02-19 04:21:00,37.0,35.0,29.79,SSW,202,0.0,2.0,92,0.00,,,0.00,,2013-02-19 12:21:00,
2013-02-19 04:32:00,37.0,35.0,29.79,SSW,202,0.0,2.0,92,0.00,,,0.00,,2013-02-19 12:32:00,
2013-02-19 04:42:00,37.0,35.0,29.79,SSW,202,0.0,2.0,92,0.00,,,0.00,,2013-02-19 12:42:00,
2013-02-19 04:52:00,37.0,35.0,29.79,West,267,1.0,3.0,93,0.00,,,0.00,,2013-02-19 12:52:00,
2013-02-19 05:01:00,37.0,35.0,29.79,West,267,1.0,3.0,93,0.00,,,0.00,,2013-02-19 13:01:00,
2013-02-19 05:11:00,37.0,35.0,29.79,West,267,1.0,3.0,93,0.00,,,0.00,,2013-02-19 13:11:00,
2013-02-19 05:22:00,37.0,35.0,29.79,West,267,1.0,3.0,93,0.00,,,0.00,,2013-02-19 13:22:00,
2013-02-19 05:31:00,37.0,35.0,29.77,West,279,0.0,2.0,94,0.00,,,0.00,,2013-02-19 13:31:00,
2013-02-19 05:42:00,37.0,35.0,29.77,West,279,0.0,2.0,94,0.00,,,0.00,,2013-02-19 13:42:00,
2013-02-19 05:52:00,37.0,35.0,29.77,NNW,328,1.0,3.0,94,0.00,,,0.00,,2013-02-19 13:52:00,
2013-02-19 06:01:00,38.0,37.0,29.76,ENE,76,0.0,3.0,96,0.00,,,0.00,,2013-02-19 14:01:00,
2013-02-19 06:11:00,38.0,37.0,29.76,ENE,76,0.0,3.0,96,0.00,,,0.00,,2013-02-19 14:11:00,
2013-02-19 06:21:00,38.0,37.0,29.76,ENE,76,0.0,3.0,96,0.00,,,0.00,,2013-02-19 14:21:00,
2013-02-19 06:32:00,39.0,38.0,29.75,SW,227,1.0,3.0,96,0.00,,,0.00,,2013-02-19 14:32:00,
2013-02-19 06:41:00,39.0,38.0,29.75,SW,227,1.0,3.0,96,0.00,,,0.00,,2013-02-19 14:41:00,
2013-02-19 06:52:00,41.0,40.0,29.74,SW,234,2.0,7.0,95,0.00,,,0.00,,2013-02-19 14:52:00,
2013-02-19 07:01:00,41.0,39.0,29.73,WSW,240,2.0,6.0,94,0.00,,,0.00,,2013-02-19 15:01:00,
2013-02-19 07:11:00,41.0,39.0,29.73,WSW,240,2.0,6.0,94,0.00,,,0.00,,2013-02-19 15:11:00,
2013-02-19 07:21:00,41.0,39.0,29.73,WSW,240,2.0,6.0,94,0.00,,,0.00,,2013-02-19 15:21:00,
2013-02-19 07:31:00,41.0,39.0,29.72,SSW,192,2.0,7.0,92,0.01,,,0.01,,2013-02-19 15:31:00,
2013-02-19 07:41:00,41.0,39.0,29.72,SSW,192,2.0,7.0,92,0.01,,,0.01,,2013-02-19 15:41:00,
2013-02-19 07:52:00,41.0,39.0,29.72,West,259,3.0,8.0,92,0.02,,,0.02,,2013-02-19 15:52:00,
2013-02-19 08:01:00,41.0,39.0,29.71,SSE,163,3.0,12.0,93,0.03,,,0.03,,2013-02-19 16:01:00,
2013-02-19 08:11:00,41.0,39.0,29.71,SSE,163,3.0,12.0,93,0.03,,,0.03,,2013-02-19 16:11:00,
2013-02-19 08:21:00,41.0,39.0,29.72,West,280,4.0,9.0,94,0.09,,,0.09,,2013-02-19 16:21:00,
2013-02-19 08:31:00,40.0,38.0,29.71,SSE,159,1.0,7.0,94,0.14,,,0.15,,2013-02-19 16:31:00,
2013-02-19 08:41:00,40.0,38.0,29.71,SSE,159,1.0,7.0,94,0.14,,,0.15,,2013-02-19 16:41:00,
2013-02-19 08:51:00,40.0,38.0,29.71,SW,227,1.0,6.0,93,0.16,,,0.18,,2013-02-19 16:51:00,
2013-02-19 09:01:00,40.0,38.0,29.71,SW,227,1.0,6.0,93,0.16,,,0.18,,2013-02-19 17:01:00,
2013-02-19 09:11:00,40.0,38.0,29.71,SW,227,1.0,6.0,93,0.16,,,0.18,,2013-02-19 17:11:00,
2013-02-19 09:21:00,40.0,38.0,29.71,WSW,256,2.0,9.0,94,0.16,,,0.25,,2013-02-19 17:21:00,
2013-02-19 09:32:00,40.0,38.0,29.70,West,272,2.0,5.0,94,0.11,,,0.26,,2013-02-19 17:32:00,
2013-02-19 09:41:00,40.0,38.0,29.70,West,272,2.0,5.0,94,0.11,,,0.26,,2013-02-19 17:41:00,
2013-02-19 09:52:00,40.0,39.0,29.72,WSW,244,5.0,9.0,95,0.09,,,0.27,,2013-02-19 17:52:00,
2013-02-19 10:01:00,40.0,38.0,29.71,WSW,242,4.0,9.0,93,0.05,,,0.27,,2013-02-19 18:01:00,
2013-02-19 10:11:00,40.0,38.0,29.71,WSW,242,4.0,9.0,93,0.05,,,0.27,,2013-02-19 18:11:00,
2013-02-19 10:21:00,41.0,39.0,29.70,WSW,256,2.0,9.0,94,0.02,,,0.27,,2013-02-19 18:21:00,
2013-02-19 10:31:00,42.0,40.0,29.70,WNW,288,3.0,7.0,93,0.01,,,0.27,,2013-02-19 18:31:00,
2013-02-19 10:41:00,42.0,40.0,29.70,WNW,288,3.0,7.0,93,0.01,,,0.27,,2013-02-19 18:41:00,
2013-02-19 10:51:00,42.0,40.0,29.70,WSW,238,2.0,11.0,92,0.00,,,0.27,,2013-02-19 18:51:00,
2013-02-19 11:01:00,43.0,41.0,29.70,West,275,3.0,6.0,92,0.00,,,0.27,,2013-02-19 19:01:00,
2013-02-19 11:11:00,43.0,41.0,29.70,West,275,3.0,6.0,92,0.00,,,0.27,,2013-02-19 19:11:00,
2013-02-19 11:21:00,42.0,39.0,29.70,West,261,4.0,7.0,90,0.00,,,0.27,,2013-02-19 19:21:00,
2013-02-19 11:31:00,43.0,41.0,29.69,West,273,4.0,8.0,92,0.00,,,0.27,,2013-02-19 19:31:00,
2013-02-19 11:41:00,43.0,41.0,29.69,West,273,4.0,8.0,92,0.00,,,0.27,,2013-02-19 19:41:00,
2013-02-19 11:51:00,39.0,35.0,29.70,NNW,327,4.0,21.0,86,0.01,,,0.28,,2013-02-19 19:51:00,
2013-02-19 12:01:00,38.0,36.0,29.70,NE,42,1.0,6.0,91,0.03,,,0.30,,2013-02-19 20:01:00,
2013-02-19 12:11:00,38.0,36.0,29.70,NE,42,1.0,6.0,91,0.03,,,0.30,,2013-02-19 20:11:00,
2013-02-19 12:21:00,39.0,38.0,29.69,WNW,286,2.0,6.0,95,0.04,,,0.31,,2013-02-19 20:21:00,
2013-02-19 12:31:00,42.0,41.0,29.68,WNW,297,4.0,9.0,95,0.05,,,0.32,,2013-02-19 20:31:00,
2013-02-19 12:41:00,42.0,41.0,29.68,WNW,297,4.0,9.0,95,0.05,,,0.32,,2013-02-19 20:41:00,
2013-02-19 12:52:00,44.0,41.0,29.67,West,259,5.0,18.0,90,0.05,,,0.33,,2013-02-19 20:52:00,
2013-02-19 13:01:00,44.0,40.0,29.67,WSW,254,6.0,15.0,86,0.03,,,0.33,,2013-02-19 21:01:00,
2013-02-19 13:11:00,44.0,40.0,29.67,WSW,254,6.0,15.0,86,0.03,,,0.33,,2013-02-19 21:11:00,
2013-02-19 13:21:00,45.0,40.0,29.66,SW,231,8.0,14.0,84,0.02,,,0.33,,2013-02-19 21:21:00,
2013-02-19 13:31:00,45.0,38.0,29.66,NNW,329,7.0,14.0,76,0.01,,,0.33,,2013-02-19 21:31:00,
2013-02-19 13:42:00,45.0,38.0,29.66,NNW,329,7.0,14.0,76,0.01,,,0.33,,2013-02-19 21:42:00,
2013-02-19 13:51:00,45.0,38.0,29.66,NNW,329,7.0,14.0,76,0.01,,,0.33,,2013-02-19 21:51:00,
2013-02-19 14:01:00,44.0,38.0,29.66,West,274,4.0,11.0,79,0.00,,,0.33,,2013-02-19 22:01:00,
2013-02-19 14:11:00,44.0,38.0,29.66,West,274,4.0,11.0,79,0.00,,,0.33,,2013-02-19 22:11:00,
2013-02-19 14:21:00,45.0,37.0,29.65,WNW,288,4.0,13.0,73,0.00,,,0.33,,2013-02-19 22:21:00,
2013-02-19 14:32:00,44.0,36.0,29.65,WNW,294,5.0,12.0,72,0.00,,,0.33,,2013-02-19 22:32:00,
2013-02-19 14:41:00,44.0,36.0,29.65,WNW,294,5.0,12.0,72,0.00,,,0.33,,2013-02-19 22:41:00,
2013-02-19 14:51:00,45.0,35.0,29.64,NW,323,7.0,16.0,67,0.00,,,0.33,,2013-02-19 22:51:00,
2013-02-19 15:01:00,45.0,35.0,29.64,NW,323,7.0,16.0,67,0.00,,,0.33,,2013-02-19 23:01:00,
2013-02-19 15:11:00,45.0,35.0,29.64,NW,323,7.0,16.0,67,0.00,,,0.33,,2013-02-19 23:11:00,
2013-02-19 15:32:00,46.0,35.0,29.64,NW,315,6.0,11.0,65,0.00,,,0.33,,2013-02-19 23:32:00,
2013-02-19 15:42:00,46.0,35.0,29.64,NW,315,6.0,11.0,65,0.00,,,0.33,,2013-02-19 23:42:00,
2013-02-19 15:52:00,45.0,34.0,29.65,NW,319,6.0,13.0,64,0.00,,,0.33,,2013-02-19 23:52:00,
2013-02-19 16:01:00,46.0,34.0,29.64,WNW,300,5.0,16.0,62,0.00,,,0.33,,2013-02-20 00:01:00,
2013-02-19 16:11:00,46.0,34.0,29.64,WNW,300,5.0,16.0,62,0.00,,,0.33,,2013-02-20 00:11:00,
2013-02-19 16:21:00,46.0,35.0,29.65,WNW,300,7.0,16.0,64,0.00,,,0.33,,2013-02-20 00:21:00,
2013-02-19 16:31:00,45.0,34.0,29.65,West,274,6.0,16.0,66,0.00,,,0.33,,2013-02-20 00:31:00,
2013-02-19 16:41:00,45.0,34.0,29.65,West,274,6.0,16.0,66,0.00,,,0.33,,2013-02-20 00:41:00,
2013-02-19 16:51:00,44.0,33.0,29.65,West,277,6.0,14.0,66,0.00,,,0.33,,2013-02-20 00:51:00,
2013-02-19 17:02:00,43.0,33.0,29.64,WNW,286,6.0,18.0,68,0.01,,,0.34,,2013-02-20 01:02:00,
2013-02-19 17:11:00,43.0,33.0,29.64,WNW,286,6.0,18.0,68,0.01,,,0.34,,2013-02-20 01:11:00,
2013-02-19 17:21:00,42.0,33.0,29.64,SW,236,4.0,12.0,70,0.01,,,0.34,,2013-02-20 01:21:00,
2013-02-19 17:31:00,41.0,32.0,29.64,WSW,253,6.0,15.0,69,0.01,,,0.34,,2013-02-20 01:31:00,
2013-02-19 17:41:00,41.0,32.0,29.64,WSW,253,6.0,15.0,69,0.01,,,0.34,,2013-02-20 01:41:00,
2013-02-19 17:51:00,41.0,32.0,29.65,West,276,4.0,11.0,70,0.01,,,0.34,,2013-02-20 01:51:00,
2013-02-19 18:01:00,40.0,31.0,29.65,NW,318,2.0,9.0,71,0.00,,,0.34,,2013-02-20 02:01:00,
2013-02-19 18:11:00,40.0,31.0,29.65,NW,318,2.0,9.0,71,0.00,,,0.34,,2013-02-20 02:11:00,
2013-02-19 18:21:00,39.0,31.0,29.65,NNW,343,4.0,9.0,73,0.00,,,0.34,,2013-02-20 02:21:00,
2013-02-19 18:31:00,38.0,30.0,29.66,NW,315,1.0,7.0,74,0.00,,,0.34,,2013-02-20 02:31:00,
2013-02-19 18:41:00,38.0,30.0,29.66,NW,315,1.0,7.0,74,0.00,,,0.34,,2013-02-20 02:41:00,
2013-02-19 18:52:00,38.0,30.0,29.66,NW,313,1.0,7.0,74,0.00,,,0.34,,2013-02-20 02:52:00,
2013-02-19 19:01:00,37.0,30.0,29.67,NW,318,2.0,4.0,76,0.00,,,0.34,,2013-02-20 03:01:00,
2013-02-19 19:12:00,37.0,30.0,29.67,NW,318,2.0,4.0,76,0.00,,,0.34,,2013-02-20 03:12:00,
2013-02-19 19:21:00,36.0,30.0,29.67,West,281,3.0,6.0,79,0.00,,,0.34,,2013-02-20 03:21:00,
2013-02-19 19:32:00,37.0,31.0,29.67,NNW,331,3.0,7.0,78,0.00,,,0.34,,2013-02-20 03:32:00,
2013-02-19 19:41:00,37.0,31.0,29.67,NNW,331,3.0,7.0,78,0.00,,,0.34,,2013-02-20 03:41:00,
2013-02-19 19:51:00,37.0,31.0,29.68,NW,322,1.0,5.0,78,0.00,,,0.34,,2013-02-20 03:51:00,
2013-02-19 20:01:00,36.0,30.0,29.69,NW,304,1.0,4.0,79,0.00,,,0.34,,2013-02-20 04:01:00,
2013-02-19 20:11:00,36.0,30.0,29.69,NW,304,1.0,4.0,79,0.00,,,0.34,,2013-02-20 04:11:00,
2013-02-19 20:21:00,35.0,30.0,29.69,WNW,284,2.0,6.0,83,0.00,,,0.34,,2013-02-20 04:21:00,
2013-02-19 20:31:00,34.0,30.0,29.69,WSW,250,1.0,2.0,84,0.00,,,0.34,,2013-02-20 04:31:00,
2013-02-19 20:41:00,34.0,30.0,29.69,WSW,250,1.0,2.0,84,0.00,,,0.34,,2013-02-20 04:41:00,
2013-02-19 20:51:00,33.0,29.0,29.70,SSW,211,1.0,2.0,86,0.00,,,0.34,,2013-02-20 04:51:00,
2013-02-19 21:02:00,33.0,30.0,29.70,South,171,2.0,3.0,88,0.00,,,0.34,,2013-02-20 05:02:00,
2013-02-19 21:12:00,33.0,30.0,29.70,South,171,2.0,3.0,88,0.00,,,0.34,,2013-02-20 05:12:00,
2013-02-19 21:22:00,33.0,30.0,29.70,South,171,2.0,3.0,88,0.00,,,0.34,,2013-02-20 05:22:00,
2013-02-19 21:32:00,33.0,30.0,29.71,SE,144,2.0,3.0,90,0.00,,,0.34,,2013-02-20 05:32:00,
2013-02-19 21:43:00,33.0,30.0,29.71,SE,144,2.0,3.0,90,0.00,,,0.34,,2013-02-20 05:43:00,
2013-02-19 21:52:00,33.0,30.0,29.71,SSE,158,1.0,4.0,90,0.00,,,0.34,,2013-02-20 05:52:00,
2013-02-19 22:01:00,33.0,30.0,29.72,WSW,238,0.0,3.0,89,0.00,,,0.34,,2013-02-20 06:01:00,
2013-02-19 22:11:00,33.0,30.0,29.72,WSW,238,0.0,3.0,89,0.00,,,0.34,,2013-02-20 06:11:00,
2013-02-19 22:21:00,32.0,29.0,29.72,SSE,162,1.0,2.0,89,0.00,,,0.34,,2013-02-20 06:21:00,
2013-02-19 22:31:00,32.0,30.0,29.73,SSE,162,0.0,2.0,91,0.00,,,0.34,,2013-02-20 06:31:00,
2013-02-19 22:42:00,32.0,30.0,29.73,SSE,162,0.0,2.0,91,0.00,,,0.34,,2013-02-20 06:42:00,
2013-02-19 22:51:00,32.0,30.0,29.73,SSE,162,0.0,2.0,91,0.00,,,0.34,,2013-02-20 06:51:00,
2013-02-19 23:01:00,32.0,30.0,29.73,SW,215,1.0,3.0,92,0.00,,,0.34,,2013-02-20 07:01:00,
2013-02-19 23:11:00,32.0,30.0,29.73,SW,215,1.0,3.0,92,0.00,,,0.34,,2013-02-20 07:11:00,
2013-02-19 23:21:00,32.0,30.0,29.73,WSW,245,1.0,2.0,92,0.00,,,0.34,,2013-02-20 07:21:00,
2013-02-19 23:31:00,32.0,30.0,29.74,West,266,2.0,4.0,92,0.00,,,0.34,,2013-02-20 07:31:00,
2013-02-19 23:41:00,32.0,30.0,29.74,West,266,2.0,4.0,92,0.00,,,0.34,,2013-02-20 07:41:00,
2013-02-19 23:51:00,32.0,30.0,29.75,SW,235,1.0,3.0,93,0.00,,,0.34,,2013-02-20 07:51:00,